sensor_id;sensor_type;location;lat;lon;timestamp;P1;durP1;ratioP1;P2;durP2;ratioP2
37641;SDS011;23486;51.956;5.888;2022-07-18T00:02:22;3.50;;;1.15;;
37641;SDS011;23486;51.956;5.888;2022-07-18T00:04:48;3.65;;;1.20;;
37641;SDS011;23486;51.956;5.888;2022-07-18T00:07:13;3.72;;;1.23;;
37641;SDS011;23486;51.956;5.888;2022-07-18T00:09:39;5.43;;;1.25;;
37641;SDS011;23486;51.956;5.888;2022-07-18T00:12:06;2.67;;;1.02;;
37641;SDS011;23486;51.956;5.888;2022-07-18T00:14:33;5.55;;;1.15;;
37641;SDS011;23486;51.956;5.888;2022-07-18T00:17:05;5.45;;;1.35;;
37641;SDS011;23486;51.956;5.888;2022-07-18T00:19:31;3.83;;;1.20;;
37641;SDS011;23486;51.956;5.888;2022-07-18T00:22:01;3.08;;;1.20;;
37641;SDS011;23486;51.956;5.888;2022-07-18T00:24:28;3.35;;;1.50;;
37641;SDS011;23486;51.956;5.888;2022-07-18T00:26:53;3.15;;;0.98;;
37641;SDS011;23486;51.956;5.888;2022-07-18T00:29:19;2.90;;;1.40;;
37641;SDS011;23486;51.956;5.888;2022-07-18T00:31:45;3.08;;;1.15;;
37641;SDS011;23486;51.956;5.888;2022-07-18T00:34:13;3.60;;;1.10;;
37641;SDS011;23486;51.956;5.888;2022-07-18T00:36:39;3.58;;;1.35;;
37641;SDS011;23486;51.956;5.888;2022-07-18T00:39:05;4.97;;;1.67;;
37641;SDS011;23486;51.956;5.888;2022-07-18T00:41:31;3.15;;;1.15;;
37641;SDS011;23486;51.956;5.888;2022-07-18T00:43:56;3.92;;;1.20;;
37641;SDS011;23486;51.956;5.888;2022-07-18T00:46:25;5.75;;;1.30;;
37641;SDS011;23486;51.956;5.888;2022-07-18T00:48:52;5.18;;;1.48;;
37641;SDS011;23486;51.956;5.888;2022-07-18T00:51:19;5.18;;;1.35;;
37641;SDS011;23486;51.956;5.888;2022-07-18T00:53:45;3.75;;;1.60;;
37641;SDS011;23486;51.956;5.888;2022-07-18T00:56:12;4.88;;;1.27;;
37641;SDS011;23486;51.956;5.888;2022-07-18T00:58:42;3.17;;;1.10;;
37641;SDS011;23486;51.956;5.888;2022-07-18T01:01:08;3.75;;;1.23;;
37641;SDS011;23486;51.956;5.888;2022-07-18T01:03:52;3.40;;;1.10;;
37641;SDS011;23486;51.956;5.888;2022-07-18T01:06:18;4.78;;;1.40;;
37641;SDS011;23486;51.956;5.888;2022-07-18T01:08:43;4.43;;;0.90;;
37641;SDS011;23486;51.956;5.888;2022-07-18T01:11:09;3.38;;;1.00;;
37641;SDS011;23486;51.956;5.888;2022-07-18T01:13:36;3.58;;;1.25;;
37641;SDS011;23486;51.956;5.888;2022-07-18T01:16:02;5.03;;;1.05;;
37641;SDS011;23486;51.956;5.888;2022-07-18T01:18:28;3.47;;;1.20;;
37641;SDS011;23486;51.956;5.888;2022-07-18T01:20:54;4.75;;;0.82;;
37641;SDS011;23486;51.956;5.888;2022-07-18T01:23:20;4.47;;;1.20;;
37641;SDS011;23486;51.956;5.888;2022-07-18T01:25:46;3.13;;;0.98;;
37641;SDS011;23486;51.956;5.888;2022-07-18T01:28:11;3.65;;;1.20;;
37641;SDS011;23486;51.956;5.888;2022-07-18T01:30:37;4.78;;;1.15;;
37641;SDS011;23486;51.956;5.888;2022-07-18T01:33:03;4.13;;;1.10;;
37641;SDS011;23486;51.956;5.888;2022-07-18T01:35:29;3.10;;;1.10;;
37641;SDS011;23486;51.956;5.888;2022-07-18T01:37:57;3.17;;;1.10;;
37641;SDS011;23486;51.956;5.888;2022-07-18T01:40:24;4.68;;;1.45;;
37641;SDS011;23486;51.956;5.888;2022-07-18T01:42:50;4.63;;;1.00;;
37641;SDS011;23486;51.956;5.888;2022-07-18T01:45:16;5.15;;;1.25;;
37641;SDS011;23486;51.956;5.888;2022-07-18T01:47:42;4.65;;;1.75;;
37641;SDS011;23486;51.956;5.888;2022-07-18T01:50:09;3.85;;;1.25;;
37641;SDS011;23486;51.956;5.888;2022-07-18T01:52:35;6.35;;;1.30;;
37641;SDS011;23486;51.956;5.888;2022-07-18T01:55:00;7.88;;;1.73;;
37641;SDS011;23486;51.956;5.888;2022-07-18T01:57:26;6.63;;;1.60;;
37641;SDS011;23486;51.956;5.888;2022-07-18T01:59:52;5.97;;;1.58;;
37641;SDS011;23486;51.956;5.888;2022-07-18T02:02:18;4.68;;;1.60;;
37641;SDS011;23486;51.956;5.888;2022-07-18T02:04:43;5.20;;;1.83;;
37641;SDS011;23486;51.956;5.888;2022-07-18T02:07:39;4.95;;;1.75;;
37641;SDS011;23486;51.956;5.888;2022-07-18T02:10:10;4.53;;;1.40;;
37641;SDS011;23486;51.956;5.888;2022-07-18T02:12:38;3.22;;;1.33;;
37641;SDS011;23486;51.956;5.888;2022-07-18T02:15:04;3.95;;;1.38;;
37641;SDS011;23486;51.956;5.888;2022-07-18T02:17:31;3.30;;;1.30;;
37641;SDS011;23486;51.956;5.888;2022-07-18T02:19:57;4.53;;;1.42;;
37641;SDS011;23486;51.956;5.888;2022-07-18T02:22:22;5.85;;;1.95;;
37641;SDS011;23486;51.956;5.888;2022-07-18T02:24:49;5.93;;;1.75;;
37641;SDS011;23486;51.956;5.888;2022-07-18T02:27:15;3.85;;;1.20;;
37641;SDS011;23486;51.956;5.888;2022-07-18T02:29:41;3.83;;;1.17;;
37641;SDS011;23486;51.956;5.888;2022-07-18T02:32:06;4.57;;;1.20;;
37641;SDS011;23486;51.956;5.888;2022-07-18T02:34:32;4.35;;;1.40;;
37641;SDS011;23486;51.956;5.888;2022-07-18T02:36:58;3.75;;;1.42;;
37641;SDS011;23486;51.956;5.888;2022-07-18T02:39:24;4.63;;;1.40;;
37641;SDS011;23486;51.956;5.888;2022-07-18T02:41:50;4.35;;;1.55;;
37641;SDS011;23486;51.956;5.888;2022-07-18T02:44:15;4.70;;;1.35;;
37641;SDS011;23486;51.956;5.888;2022-07-18T02:46:42;4.15;;;1.90;;
37641;SDS011;23486;51.956;5.888;2022-07-18T02:49:08;4.65;;;1.63;;
37641;SDS011;23486;51.956;5.888;2022-07-18T02:51:34;4.93;;;1.50;;
37641;SDS011;23486;51.956;5.888;2022-07-18T02:53:59;4.93;;;1.55;;
37641;SDS011;23486;51.956;5.888;2022-07-18T02:56:25;4.60;;;1.70;;
37641;SDS011;23486;51.956;5.888;2022-07-18T02:58:50;4.13;;;1.70;;
37641;SDS011;23486;51.956;5.888;2022-07-18T03:01:16;2.53;;;0.95;;
37641;SDS011;23486;51.956;5.888;2022-07-18T03:03:42;4.28;;;1.55;;
37641;SDS011;23486;51.956;5.888;2022-07-18T03:06:07;3.90;;;1.70;;
37641;SDS011;23486;51.956;5.888;2022-07-18T03:08:33;4.93;;;1.67;;
37641;SDS011;23486;51.956;5.888;2022-07-18T03:10:59;4.25;;;1.85;;
37641;SDS011;23486;51.956;5.888;2022-07-18T03:13:24;4.07;;;1.10;;
37641;SDS011;23486;51.956;5.888;2022-07-18T03:15:50;3.50;;;1.35;;
37641;SDS011;23486;51.956;5.888;2022-07-18T03:18:15;4.13;;;1.77;;
37641;SDS011;23486;51.956;5.888;2022-07-18T03:20:42;4.25;;;1.17;;
37641;SDS011;23486;51.956;5.888;2022-07-18T03:23:07;3.30;;;1.42;;
37641;SDS011;23486;51.956;5.888;2022-07-18T03:25:34;4.22;;;1.50;;
37641;SDS011;23486;51.956;5.888;2022-07-18T03:28:00;3.40;;;1.33;;
37641;SDS011;23486;51.956;5.888;2022-07-18T03:30:26;5.53;;;1.38;;
37641;SDS011;23486;51.956;5.888;2022-07-18T03:32:52;3.67;;;1.40;;
37641;SDS011;23486;51.956;5.888;2022-07-18T03:35:17;3.20;;;1.35;;
37641;SDS011;23486;51.956;5.888;2022-07-18T03:37:43;3.85;;;1.40;;
37641;SDS011;23486;51.956;5.888;2022-07-18T03:40:09;3.10;;;1.20;;
37641;SDS011;23486;51.956;5.888;2022-07-18T03:42:38;4.65;;;1.80;;
37641;SDS011;23486;51.956;5.888;2022-07-18T03:45:05;3.58;;;1.48;;
37641;SDS011;23486;51.956;5.888;2022-07-18T03:47:32;4.38;;;1.30;;
37641;SDS011;23486;51.956;5.888;2022-07-18T03:49:57;5.32;;;1.40;;
37641;SDS011;23486;51.956;5.888;2022-07-18T03:52:23;4.18;;;1.40;;
37641;SDS011;23486;51.956;5.888;2022-07-18T03:54:48;5.05;;;1.58;;
37641;SDS011;23486;51.956;5.888;2022-07-18T03:57:14;3.40;;;1.55;;
37641;SDS011;23486;51.956;5.888;2022-07-18T03:59:40;3.70;;;1.20;;
37641;SDS011;23486;51.956;5.888;2022-07-18T04:02:05;3.20;;;1.02;;
37641;SDS011;23486;51.956;5.888;2022-07-18T04:04:31;6.40;;;1.58;;
37641;SDS011;23486;51.956;5.888;2022-07-18T04:06:56;4.00;;;1.23;;
37641;SDS011;23486;51.956;5.888;2022-07-18T04:09:24;45.97;;;4.38;;
37641;SDS011;23486;51.956;5.888;2022-07-18T04:11:50;3.67;;;1.08;;
37641;SDS011;23486;51.956;5.888;2022-07-18T04:14:16;3.55;;;1.10;;
37641;SDS011;23486;51.956;5.888;2022-07-18T04:16:41;5.53;;;1.63;;
37641;SDS011;23486;51.956;5.888;2022-07-18T04:19:08;4.18;;;1.42;;
37641;SDS011;23486;51.956;5.888;2022-07-18T04:21:34;3.50;;;1.20;;
37641;SDS011;23486;51.956;5.888;2022-07-18T04:23:59;2.72;;;1.17;;
37641;SDS011;23486;51.956;5.888;2022-07-18T04:26:25;5.60;;;2.13;;
37641;SDS011;23486;51.956;5.888;2022-07-18T04:28:51;4.78;;;1.35;;
37641;SDS011;23486;51.956;5.888;2022-07-18T04:31:18;4.88;;;1.48;;
37641;SDS011;23486;51.956;5.888;2022-07-18T04:33:44;3.67;;;1.25;;
37641;SDS011;23486;51.956;5.888;2022-07-18T04:36:10;4.25;;;1.38;;
37641;SDS011;23486;51.956;5.888;2022-07-18T04:38:36;5.47;;;1.25;;
37641;SDS011;23486;51.956;5.888;2022-07-18T04:41:03;5.32;;;1.55;;
37641;SDS011;23486;51.956;5.888;2022-07-18T04:43:29;3.58;;;1.33;;
37641;SDS011;23486;51.956;5.888;2022-07-18T04:45:55;5.45;;;1.20;;
37641;SDS011;23486;51.956;5.888;2022-07-18T04:48:21;4.00;;;1.33;;
37641;SDS011;23486;51.956;5.888;2022-07-18T04:50:46;3.80;;;1.25;;
37641;SDS011;23486;51.956;5.888;2022-07-18T04:53:12;5.70;;;1.67;;
37641;SDS011;23486;51.956;5.888;2022-07-18T04:55:37;3.95;;;1.30;;
37641;SDS011;23486;51.956;5.888;2022-07-18T04:58:03;3.95;;;1.63;;
37641;SDS011;23486;51.956;5.888;2022-07-18T05:00:30;5.45;;;1.60;;
37641;SDS011;23486;51.956;5.888;2022-07-18T05:02:56;3.75;;;1.20;;
37641;SDS011;23486;51.956;5.888;2022-07-18T05:05:23;5.78;;;1.65;;
37641;SDS011;23486;51.956;5.888;2022-07-18T05:07:50;4.53;;;2.03;;
37641;SDS011;23486;51.956;5.888;2022-07-18T05:10:17;5.10;;;1.58;;
37641;SDS011;23486;51.956;5.888;2022-07-18T05:12:45;6.38;;;1.65;;
37641;SDS011;23486;51.956;5.888;2022-07-18T05:15:15;5.43;;;1.67;;
37641;SDS011;23486;51.956;5.888;2022-07-18T05:17:42;8.95;;;2.35;;
37641;SDS011;23486;51.956;5.888;2022-07-18T05:20:09;5.45;;;1.60;;
37641;SDS011;23486;51.956;5.888;2022-07-18T05:22:37;5.97;;;1.88;;
37641;SDS011;23486;51.956;5.888;2022-07-18T05:25:03;6.13;;;1.92;;
37641;SDS011;23486;51.956;5.888;2022-07-18T05:27:30;6.25;;;2.17;;
37641;SDS011;23486;51.956;5.888;2022-07-18T05:29:55;3.53;;;1.45;;
37641;SDS011;23486;51.956;5.888;2022-07-18T05:32:21;5.90;;;2.25;;
37641;SDS011;23486;51.956;5.888;2022-07-18T05:34:47;6.22;;;1.92;;
37641;SDS011;23486;51.956;5.888;2022-07-18T05:37:14;4.25;;;1.35;;
37641;SDS011;23486;51.956;5.888;2022-07-18T05:39:39;6.97;;;3.25;;
37641;SDS011;23486;51.956;5.888;2022-07-18T05:42:06;5.93;;;1.92;;
37641;SDS011;23486;51.956;5.888;2022-07-18T05:44:32;4.55;;;2.22;;
37641;SDS011;23486;51.956;5.888;2022-07-18T05:46:58;6.45;;;2.25;;
37641;SDS011;23486;51.956;5.888;2022-07-18T05:49:23;7.40;;;1.83;;
37641;SDS011;23486;51.956;5.888;2022-07-18T05:51:49;5.70;;;1.75;;
37641;SDS011;23486;51.956;5.888;2022-07-18T05:54:14;4.28;;;2.00;;
37641;SDS011;23486;51.956;5.888;2022-07-18T05:56:47;4.88;;;1.48;;
37641;SDS011;23486;51.956;5.888;2022-07-18T05:59:14;6.03;;;2.90;;
37641;SDS011;23486;51.956;5.888;2022-07-18T06:01:39;4.15;;;1.67;;
37641;SDS011;23486;51.956;5.888;2022-07-18T06:04:05;5.72;;;2.90;;
37641;SDS011;23486;51.956;5.888;2022-07-18T06:06:31;9.52;;;2.42;;
37641;SDS011;23486;51.956;5.888;2022-07-18T06:08:56;5.20;;;2.35;;
37641;SDS011;23486;51.956;5.888;2022-07-18T06:11:22;10.25;;;2.00;;
37641;SDS011;23486;51.956;5.888;2022-07-18T06:13:47;5.18;;;1.65;;
37641;SDS011;23486;51.956;5.888;2022-07-18T06:16:13;4.70;;;1.83;;
37641;SDS011;23486;51.956;5.888;2022-07-18T06:18:38;6.40;;;1.67;;
37641;SDS011;23486;51.956;5.888;2022-07-18T06:21:04;5.35;;;1.88;;
37641;SDS011;23486;51.956;5.888;2022-07-18T06:23:30;4.57;;;1.00;;
37641;SDS011;23486;51.956;5.888;2022-07-18T06:25:56;4.40;;;1.35;;
37641;SDS011;23486;51.956;5.888;2022-07-18T06:28:22;4.18;;;1.80;;
37641;SDS011;23486;51.956;5.888;2022-07-18T06:30:49;6.07;;;1.77;;
37641;SDS011;23486;51.956;5.888;2022-07-18T06:33:15;5.05;;;1.55;;
37641;SDS011;23486;51.956;5.888;2022-07-18T06:35:40;4.13;;;1.58;;
37641;SDS011;23486;51.956;5.888;2022-07-18T06:38:06;4.30;;;1.23;;
37641;SDS011;23486;51.956;5.888;2022-07-18T06:40:32;6.35;;;1.60;;
37641;SDS011;23486;51.956;5.888;2022-07-18T06:42:57;9.30;;;1.92;;
37641;SDS011;23486;51.956;5.888;2022-07-18T06:45:23;6.47;;;1.80;;
37641;SDS011;23486;51.956;5.888;2022-07-18T06:47:49;9.77;;;1.45;;
37641;SDS011;23486;51.956;5.888;2022-07-18T06:50:15;6.05;;;1.70;;
37641;SDS011;23486;51.956;5.888;2022-07-18T06:52:41;6.68;;;1.83;;
37641;SDS011;23486;51.956;5.888;2022-07-18T06:55:08;6.88;;;1.88;;
37641;SDS011;23486;51.956;5.888;2022-07-18T06:57:35;3.33;;;1.42;;
37641;SDS011;23486;51.956;5.888;2022-07-18T07:00:01;4.25;;;1.42;;
37641;SDS011;23486;51.956;5.888;2022-07-18T07:02:27;2.53;;;0.85;;
37641;SDS011;23486;51.956;5.888;2022-07-18T07:04:53;3.97;;;1.05;;
37641;SDS011;23486;51.956;5.888;2022-07-18T07:07:18;3.80;;;0.98;;
37641;SDS011;23486;51.956;5.888;2022-07-18T07:09:44;4.63;;;0.65;;
37641;SDS011;23486;51.956;5.888;2022-07-18T07:12:10;2.70;;;0.80;;
37641;SDS011;23486;51.956;5.888;2022-07-18T07:14:36;6.90;;;0.80;;
37641;SDS011;23486;51.956;5.888;2022-07-18T07:17:02;2.75;;;0.63;;
37641;SDS011;23486;51.956;5.888;2022-07-18T07:19:28;3.33;;;0.60;;
37641;SDS011;23486;51.956;5.888;2022-07-18T07:21:54;4.18;;;0.85;;
37641;SDS011;23486;51.956;5.888;2022-07-18T07:24:19;3.25;;;0.70;;
37641;SDS011;23486;51.956;5.888;2022-07-18T07:26:45;2.63;;;0.68;;
37641;SDS011;23486;51.956;5.888;2022-07-18T07:29:11;2.65;;;0.60;;
37641;SDS011;23486;51.956;5.888;2022-07-18T07:31:36;4.53;;;0.60;;
37641;SDS011;23486;51.956;5.888;2022-07-18T07:34:02;2.17;;;0.50;;
37641;SDS011;23486;51.956;5.888;2022-07-18T07:36:27;2.28;;;0.45;;
37641;SDS011;23486;51.956;5.888;2022-07-18T07:38:53;4.10;;;0.50;;
37641;SDS011;23486;51.956;5.888;2022-07-18T07:41:19;4.00;;;0.55;;
37641;SDS011;23486;51.956;5.888;2022-07-18T07:43:44;5.45;;;0.70;;
37641;SDS011;23486;51.956;5.888;2022-07-18T07:46:10;3.63;;;0.68;;
37641;SDS011;23486;51.956;5.888;2022-07-18T07:48:36;5.05;;;0.70;;
37641;SDS011;23486;51.956;5.888;2022-07-18T07:51:03;7.53;;;0.70;;
37641;SDS011;23486;51.956;5.888;2022-07-18T07:53:30;3.38;;;0.50;;
37641;SDS011;23486;51.956;5.888;2022-07-18T07:55:55;5.68;;;0.70;;
37641;SDS011;23486;51.956;5.888;2022-07-18T07:58:21;3.83;;;0.40;;
37641;SDS011;23486;51.956;5.888;2022-07-18T08:00:47;2.13;;;0.40;;
37641;SDS011;23486;51.956;5.888;2022-07-18T08:03:12;2.78;;;0.50;;
37641;SDS011;23486;51.956;5.888;2022-07-18T08:05:43;2.75;;;0.50;;
37641;SDS011;23486;51.956;5.888;2022-07-18T08:08:12;3.00;;;0.50;;
37641;SDS011;23486;51.956;5.888;2022-07-18T08:10:38;4.85;;;0.63;;
37641;SDS011;23486;51.956;5.888;2022-07-18T08:13:04;1.50;;;0.40;;
37641;SDS011;23486;51.956;5.888;2022-07-18T08:15:29;1.83;;;0.50;;
37641;SDS011;23486;51.956;5.888;2022-07-18T08:17:55;2.03;;;0.50;;
37641;SDS011;23486;51.956;5.888;2022-07-18T08:20:21;3.90;;;0.50;;
37641;SDS011;23486;51.956;5.888;2022-07-18T08:25:22;5.03;;;0.40;;
37641;SDS011;23486;51.956;5.888;2022-07-18T08:27:48;2.50;;;0.60;;
37641;SDS011;23486;51.956;5.888;2022-07-18T08:30:14;2.22;;;0.40;;
37641;SDS011;23486;51.956;5.888;2022-07-18T08:32:40;1.50;;;0.30;;
37641;SDS011;23486;51.956;5.888;2022-07-18T08:35:06;3.47;;;0.43;;
37641;SDS011;23486;51.956;5.888;2022-07-18T08:37:32;6.10;;;0.45;;
37641;SDS011;23486;51.956;5.888;2022-07-18T08:39:58;2.08;;;0.50;;
37641;SDS011;23486;51.956;5.888;2022-07-18T08:42:24;3.28;;;0.40;;
37641;SDS011;23486;51.956;5.888;2022-07-18T08:44:52;2.55;;;0.40;;
37641;SDS011;23486;51.956;5.888;2022-07-18T08:47:20;2.17;;;0.40;;
37641;SDS011;23486;51.956;5.888;2022-07-18T08:49:47;4.20;;;0.50;;
37641;SDS011;23486;51.956;5.888;2022-07-18T08:52:13;3.47;;;0.50;;
37641;SDS011;23486;51.956;5.888;2022-07-18T08:54:40;1.95;;;0.47;;
37641;SDS011;23486;51.956;5.888;2022-07-18T08:57:06;3.97;;;0.50;;
37641;SDS011;23486;51.956;5.888;2022-07-18T08:59:32;3.08;;;0.40;;
37641;SDS011;23486;51.956;5.888;2022-07-18T09:01:57;2.00;;;0.50;;
37641;SDS011;23486;51.956;5.888;2022-07-18T09:04:31;4.43;;;0.40;;
37641;SDS011;23486;51.956;5.888;2022-07-18T09:06:57;2.85;;;0.50;;
37641;SDS011;23486;51.956;5.888;2022-07-18T09:09:24;4.72;;;0.70;;
37641;SDS011;23486;51.956;5.888;2022-07-18T09:11:59;2.13;;;0.40;;
37641;SDS011;23486;51.956;5.888;2022-07-18T09:14:37;3.38;;;0.40;;
37641;SDS011;23486;51.956;5.888;2022-07-18T09:17:04;2.58;;;0.38;;
37641;SDS011;23486;51.956;5.888;2022-07-18T09:19:35;3.15;;;0.50;;
37641;SDS011;23486;51.956;5.888;2022-07-18T09:22:13;3.00;;;0.32;;
37641;SDS011;23486;51.956;5.888;2022-07-18T09:27:33;3.67;;;0.65;;
37641;SDS011;23486;51.956;5.888;2022-07-18T09:35:28;3.45;;;0.40;;
37641;SDS011;23486;51.956;5.888;2022-07-18T09:43:06;4.22;;;0.38;;
37641;SDS011;23486;51.956;5.888;2022-07-18T09:45:34;3.63;;;0.40;;
37641;SDS011;23486;51.956;5.888;2022-07-18T09:48:05;2.83;;;0.40;;
37641;SDS011;23486;51.956;5.888;2022-07-18T09:50:37;1.52;;;0.40;;
37641;SDS011;23486;51.956;5.888;2022-07-18T09:58:09;2.00;;;0.40;;
37641;SDS011;23486;51.956;5.888;2022-07-18T10:00:36;2.65;;;0.40;;
37641;SDS011;23486;51.956;5.888;2022-07-18T10:03:04;1.70;;;0.45;;
37641;SDS011;23486;51.956;5.888;2022-07-18T10:05:33;3.05;;;0.55;;
37641;SDS011;23486;51.956;5.888;2022-07-18T10:08:01;3.92;;;0.95;;
37641;SDS011;23486;51.956;5.888;2022-07-18T10:10:29;2.58;;;0.43;;
37641;SDS011;23486;51.956;5.888;2022-07-18T10:12:55;2.30;;;0.35;;
37641;SDS011;23486;51.956;5.888;2022-07-18T10:15:24;2.67;;;0.40;;
37641;SDS011;23486;51.956;5.888;2022-07-18T10:17:52;2.20;;;0.40;;
37641;SDS011;23486;51.956;5.888;2022-07-18T10:20:32;3.63;;;0.52;;
37641;SDS011;23486;51.956;5.888;2022-07-18T10:23:07;1.67;;;0.40;;
37641;SDS011;23486;51.956;5.888;2022-07-18T10:25:34;3.40;;;0.40;;
37641;SDS011;23486;51.956;5.888;2022-07-18T10:30:37;5.38;;;0.55;;
37641;SDS011;23486;51.956;5.888;2022-07-18T10:33:03;5.35;;;0.60;;
37641;SDS011;23486;51.956;5.888;2022-07-18T10:35:57;2.40;;;0.60;;
37641;SDS011;23486;51.956;5.888;2022-07-18T10:38:23;1.70;;;0.40;;
37641;SDS011;23486;51.956;5.888;2022-07-18T10:41:08;2.65;;;0.40;;
37641;SDS011;23486;51.956;5.888;2022-07-18T10:43:38;2.22;;;0.40;;
37641;SDS011;23486;51.956;5.888;2022-07-18T10:46:06;4.32;;;0.40;;
37641;SDS011;23486;51.956;5.888;2022-07-18T10:58:57;2.60;;;0.40;;
37641;SDS011;23486;51.956;5.888;2022-07-18T11:01:23;4.25;;;0.50;;
37641;SDS011;23486;51.956;5.888;2022-07-18T11:04:04;3.15;;;0.50;;
37641;SDS011;23486;51.956;5.888;2022-07-18T11:06:54;3.13;;;0.30;;
37641;SDS011;23486;51.956;5.888;2022-07-18T11:12:17;4.57;;;0.60;;
37641;SDS011;23486;51.956;5.888;2022-07-18T11:22:48;1.83;;;0.35;;
37641;SDS011;23486;51.956;5.888;2022-07-18T11:25:14;1.90;;;0.40;;
37641;SDS011;23486;51.956;5.888;2022-07-18T11:27:41;4.10;;;0.47;;
37641;SDS011;23486;51.956;5.888;2022-07-18T11:30:08;1.52;;;0.30;;
37641;SDS011;23486;51.956;5.888;2022-07-18T11:32:34;3.05;;;0.40;;
37641;SDS011;23486;51.956;5.888;2022-07-18T11:35:00;2.20;;;0.40;;
37641;SDS011;23486;51.956;5.888;2022-07-18T11:37:30;2.45;;;0.45;;
37641;SDS011;23486;51.956;5.888;2022-07-18T11:40:03;2.25;;;0.40;;
37641;SDS011;23486;51.956;5.888;2022-07-18T11:42:34;1.73;;;0.40;;
37641;SDS011;23486;51.956;5.888;2022-07-18T11:45:07;3.65;;;0.30;;
37641;SDS011;23486;51.956;5.888;2022-07-18T11:47:39;1.23;;;0.40;;
37641;SDS011;23486;51.956;5.888;2022-07-18T11:50:13;1.88;;;0.40;;
37641;SDS011;23486;51.956;5.888;2022-07-18T11:52:39;4.13;;;0.40;;
37641;SDS011;23486;51.956;5.888;2022-07-18T11:55:05;1.83;;;0.50;;
37641;SDS011;23486;51.956;5.888;2022-07-18T11:57:32;2.33;;;0.60;;
37641;SDS011;23486;51.956;5.888;2022-07-18T11:59:59;1.65;;;0.40;;
37641;SDS011;23486;51.956;5.888;2022-07-18T12:05:33;1.83;;;0.40;;
37641;SDS011;23486;51.956;5.888;2022-07-18T12:08:00;3.17;;;0.50;;
37641;SDS011;23486;51.956;5.888;2022-07-18T12:10:26;1.83;;;0.40;;
37641;SDS011;23486;51.956;5.888;2022-07-18T12:12:52;2.42;;;0.50;;
37641;SDS011;23486;51.956;5.888;2022-07-18T12:15:18;1.92;;;0.43;;
37641;SDS011;23486;51.956;5.888;2022-07-18T12:17:45;3.75;;;0.40;;
37641;SDS011;23486;51.956;5.888;2022-07-18T12:20:13;2.40;;;0.47;;
37641;SDS011;23486;51.956;5.888;2022-07-18T12:23:28;1.98;;;0.60;;
37641;SDS011;23486;51.956;5.888;2022-07-18T12:25:41;3.63;;;0.50;;
37641;SDS011;23486;51.956;5.888;2022-07-18T12:28:17;3.67;;;0.50;;
37641;SDS011;23486;51.956;5.888;2022-07-18T12:30:44;1.73;;;0.60;;
37641;SDS011;23486;51.956;5.888;2022-07-18T12:33:10;3.70;;;0.40;;
37641;SDS011;23486;51.956;5.888;2022-07-18T12:35:36;2.72;;;0.50;;
37641;SDS011;23486;51.956;5.888;2022-07-18T12:43:05;2.92;;;0.63;;
37641;SDS011;23486;51.956;5.888;2022-07-18T12:45:35;4.53;;;0.50;;
37641;SDS011;23486;51.956;5.888;2022-07-18T12:48:02;1.63;;;0.43;;
37641;SDS011;23486;51.956;5.888;2022-07-18T12:50:30;3.25;;;0.50;;
37641;SDS011;23486;51.956;5.888;2022-07-18T12:52:56;2.38;;;0.45;;
37641;SDS011;23486;51.956;5.888;2022-07-18T12:55:22;1.90;;;0.55;;
37641;SDS011;23486;51.956;5.888;2022-07-18T12:57:48;1.95;;;0.40;;
37641;SDS011;23486;51.956;5.888;2022-07-18T13:00:14;2.58;;;0.40;;
37641;SDS011;23486;51.956;5.888;2022-07-18T13:02:42;2.75;;;0.63;;
37641;SDS011;23486;51.956;5.888;2022-07-18T13:05:08;3.55;;;0.70;;
37641;SDS011;23486;51.956;5.888;2022-07-18T13:07:34;4.25;;;0.43;;
37641;SDS011;23486;51.956;5.888;2022-07-18T13:10:00;2.47;;;0.40;;
37641;SDS011;23486;51.956;5.888;2022-07-18T13:12:25;2.03;;;0.40;;
37641;SDS011;23486;51.956;5.888;2022-07-18T13:14:51;3.08;;;0.50;;
37641;SDS011;23486;51.956;5.888;2022-07-18T13:17:16;3.03;;;0.50;;
37641;SDS011;23486;51.956;5.888;2022-07-18T13:19:42;0.95;;;0.40;;
37641;SDS011;23486;51.956;5.888;2022-07-18T13:22:09;3.45;;;1.15;;
37641;SDS011;23486;51.956;5.888;2022-07-18T13:24:35;3.58;;;0.50;;
37641;SDS011;23486;51.956;5.888;2022-07-18T13:27:02;2.03;;;0.40;;
37641;SDS011;23486;51.956;5.888;2022-07-18T13:29:31;1.73;;;0.40;;
37641;SDS011;23486;51.956;5.888;2022-07-18T13:31:56;1.67;;;0.38;;
37641;SDS011;23486;51.956;5.888;2022-07-18T13:34:22;2.70;;;0.52;;
37641;SDS011;23486;51.956;5.888;2022-07-18T13:36:52;3.55;;;0.60;;
37641;SDS011;23486;51.956;5.888;2022-07-18T13:39:18;3.17;;;0.60;;
37641;SDS011;23486;51.956;5.888;2022-07-18T13:41:44;3.75;;;0.52;;
37641;SDS011;23486;51.956;5.888;2022-07-18T13:44:11;2.42;;;0.30;;
37641;SDS011;23486;51.956;5.888;2022-07-18T13:46:37;1.30;;;0.40;;
37641;SDS011;23486;51.956;5.888;2022-07-18T13:49:05;1.52;;;0.30;;
37641;SDS011;23486;51.956;5.888;2022-07-18T13:51:37;1.10;;;0.40;;
37641;SDS011;23486;51.956;5.888;2022-07-18T13:54:04;1.58;;;0.40;;
37641;SDS011;23486;51.956;5.888;2022-07-18T13:56:30;2.40;;;0.40;;
37641;SDS011;23486;51.956;5.888;2022-07-18T13:58:56;1.08;;;0.40;;
37641;SDS011;23486;51.956;5.888;2022-07-18T14:01:22;1.30;;;0.40;;
37641;SDS011;23486;51.956;5.888;2022-07-18T14:03:47;1.38;;;0.40;;
37641;SDS011;23486;51.956;5.888;2022-07-18T14:06:13;2.53;;;0.40;;
37641;SDS011;23486;51.956;5.888;2022-07-18T14:08:38;0.85;;;0.30;;
37641;SDS011;23486;51.956;5.888;2022-07-18T14:11:05;1.75;;;0.47;;
37641;SDS011;23486;51.956;5.888;2022-07-18T14:13:31;1.08;;;0.30;;
37641;SDS011;23486;51.956;5.888;2022-07-18T14:15:57;2.08;;;0.50;;
37641;SDS011;23486;51.956;5.888;2022-07-18T14:18:23;3.17;;;0.60;;
37641;SDS011;23486;51.956;5.888;2022-07-18T14:20:49;1.13;;;0.30;;
37641;SDS011;23486;51.956;5.888;2022-07-18T14:23:15;2.30;;;0.45;;
37641;SDS011;23486;51.956;5.888;2022-07-18T14:25:41;3.03;;;0.38;;
37641;SDS011;23486;51.956;5.888;2022-07-18T14:28:06;1.65;;;0.50;;
37641;SDS011;23486;51.956;5.888;2022-07-18T14:30:32;2.75;;;0.40;;
37641;SDS011;23486;51.956;5.888;2022-07-18T14:32:58;3.78;;;0.40;;
37641;SDS011;23486;51.956;5.888;2022-07-18T14:35:23;2.22;;;0.40;;
37641;SDS011;23486;51.956;5.888;2022-07-18T14:37:49;1.30;;;0.38;;
37641;SDS011;23486;51.956;5.888;2022-07-18T14:40:15;1.40;;;0.40;;
37641;SDS011;23486;51.956;5.888;2022-07-18T14:42:41;2.55;;;0.40;;
37641;SDS011;23486;51.956;5.888;2022-07-18T14:45:07;0.93;;;0.30;;
37641;SDS011;23486;51.956;5.888;2022-07-18T14:47:33;1.33;;;0.30;;
37641;SDS011;23486;51.956;5.888;2022-07-18T14:50:00;2.83;;;0.30;;
37641;SDS011;23486;51.956;5.888;2022-07-18T14:52:26;1.88;;;0.40;;
37641;SDS011;23486;51.956;5.888;2022-07-18T14:54:52;1.88;;;0.32;;
37641;SDS011;23486;51.956;5.888;2022-07-18T14:57:18;1.38;;;0.40;;
37641;SDS011;23486;51.956;5.888;2022-07-18T14:59:43;2.95;;;0.52;;
37641;SDS011;23486;51.956;5.888;2022-07-18T15:02:09;2.55;;;0.40;;
37641;SDS011;23486;51.956;5.888;2022-07-18T15:04:35;1.80;;;0.40;;
37641;SDS011;23486;51.956;5.888;2022-07-18T15:07:01;2.03;;;0.40;;
37641;SDS011;23486;51.956;5.888;2022-07-18T15:09:27;1.58;;;0.38;;
37641;SDS011;23486;51.956;5.888;2022-07-18T15:11:53;1.10;;;0.30;;
37641;SDS011;23486;51.956;5.888;2022-07-18T15:14:19;1.70;;;0.40;;
37641;SDS011;23486;51.956;5.888;2022-07-18T15:16:44;1.50;;;0.30;;
37641;SDS011;23486;51.956;5.888;2022-07-18T15:19:10;1.10;;;0.30;;
37641;SDS011;23486;51.956;5.888;2022-07-18T15:21:35;1.33;;;0.40;;
37641;SDS011;23486;51.956;5.888;2022-07-18T15:24:01;1.30;;;0.40;;
37641;SDS011;23486;51.956;5.888;2022-07-18T15:26:26;1.48;;;0.40;;
37641;SDS011;23486;51.956;5.888;2022-07-18T15:28:52;1.85;;;0.40;;
37641;SDS011;23486;51.956;5.888;2022-07-18T15:31:18;1.63;;;0.40;;
37641;SDS011;23486;51.956;5.888;2022-07-18T15:33:44;2.42;;;0.32;;
37641;SDS011;23486;51.956;5.888;2022-07-18T15:36:09;2.92;;;0.32;;
37641;SDS011;23486;51.956;5.888;2022-07-18T15:38:35;1.48;;;0.40;;
37641;SDS011;23486;51.956;5.888;2022-07-18T15:41:01;3.15;;;0.30;;